GTI77F RJAA-RJBB
Flight info
| Callsign | GTI77F |
|---|---|
| Flight time | N/A |
| Altitude | 36000 |
| Route | PIGOK Y50 ELNIS Y564 IBENO Y56 TOHME Y54 KOHWA Y544 DUBKA |
| Aircraft | B77L/H-SDE1E2E3FGHIJ2J3J4J5M1RWXY/LB1D1 |
Departure
| Time | N/A |
|---|---|
| Airport | Narita International Airport (RJAA) |
Arrival
| Time | 2026-04-30 07:56 |
|---|---|
| Airport | Kansai International Airport (RJBB) |
| Time | Latitude | Longitude | Altitude | Speed | Heading |
|---|---|---|---|---|---|
| 2026-04-30 07:37 | 34.43505 | 136.32626 | 24472 ft | 380 kts | 242° |
| 2026-04-30 07:37 | 34.42296 | 136.29819 | 24001 ft | 378 kts | 242° |
| 2026-04-30 07:37 | 34.41089 | 136.27020 | 23517 ft | 378 kts | 242° |
| 2026-04-30 07:37 | 34.39870 | 136.24196 | 23021 ft | 376 kts | 242° |
| 2026-04-30 07:38 | 34.38676 | 136.21434 | 22540 ft | 375 kts | 243° |
| 2026-04-30 07:38 | 34.37462 | 136.18625 | 22034 ft | 373 kts | 243° |
| 2026-04-30 07:38 | 34.36279 | 136.15891 | 21532 ft | 371 kts | 243° |
| 2026-04-30 07:38 | 34.35212 | 136.13029 | 21017 ft | 369 kts | 250° |
| 2026-04-30 07:39 | 34.34535 | 136.10086 | 20527 ft | 368 kts | 256° |
| 2026-04-30 07:39 | 34.33993 | 136.07068 | 20034 ft | 366 kts | 257° |
| 2026-04-30 07:39 | 34.33460 | 136.04069 | 19546 ft | 365 kts | 257° |
| 2026-04-30 07:39 | 34.32932 | 136.01111 | 19051 ft | 363 kts | 257° |
| 2026-04-30 07:40 | 34.32400 | 135.98149 | 18527 ft | 361 kts | 257° |
| 2026-04-30 07:40 | 34.31869 | 135.95201 | 17993 ft | 359 kts | 257° |
| 2026-04-30 07:40 | 34.31337 | 135.92256 | 17481 ft | 356 kts | 257° |
| 2026-04-30 07:40 | 34.30814 | 135.89372 | 17009 ft | 355 kts | 258° |
| 2026-04-30 07:41 | 34.30288 | 135.86469 | 16459 ft | 354 kts | 258° |
| 2026-04-30 07:41 | 34.29762 | 135.83574 | 15935 ft | 352 kts | 258° |
| 2026-04-30 07:41 | 34.29241 | 135.80713 | 15444 ft | 349 kts | 258° |
| 2026-04-30 07:41 | 34.28716 | 135.77834 | 14953 ft | 348 kts | 258° |
| 2026-04-30 07:42 | 34.28202 | 135.75021 | 14490 ft | 347 kts | 258° |
| 2026-04-30 07:42 | 34.27674 | 135.72168 | 13979 ft | 344 kts | 258° |
| 2026-04-30 07:42 | 34.27172 | 135.69359 | 13454 ft | 342 kts | 257° |
| 2026-04-30 07:42 | 34.26660 | 135.66603 | 12929 ft | 339 kts | 257° |
| 2026-04-30 07:43 | 34.26148 | 135.63847 | 12408 ft | 336 kts | 257° |
| 2026-04-30 07:43 | 34.25649 | 135.61110 | 11902 ft | 332 kts | 257° |
| 2026-04-30 07:43 | 34.25152 | 135.58423 | 11410 ft | 328 kts | 257° |
| 2026-04-30 07:43 | 34.24656 | 135.55725 | 10938 ft | 324 kts | 256° |
| 2026-04-30 07:44 | 34.24178 | 135.53137 | 10785 ft | 311 kts | 257° |
| 2026-04-30 07:44 | 34.23725 | 135.50627 | 10708 ft | 296 kts | 256° |
| 2026-04-30 07:44 | 34.23284 | 135.48273 | 10568 ft | 285 kts | 256° |
| 2026-04-30 07:44 | 34.22861 | 135.45991 | 10438 ft | 273 kts | 256° |
| 2026-04-30 07:45 | 34.22456 | 135.43787 | 10349 ft | 262 kts | 256° |
| 2026-04-30 07:45 | 34.22065 | 135.41670 | 10238 ft | 264 kts | 255° |
| 2026-04-30 07:45 | 34.21655 | 135.39476 | 10117 ft | 269 kts | 256° |
| 2026-04-30 07:45 | 34.21245 | 135.37262 | 9951 ft | 270 kts | 256° |
| 2026-04-30 07:46 | 34.20830 | 135.35036 | 9555 ft | 271 kts | 256° |
| 2026-04-30 07:46 | 34.20417 | 135.32825 | 9208 ft | 270 kts | 255° |
| 2026-04-30 07:46 | 34.20007 | 135.30626 | 8883 ft | 269 kts | 256° |
| 2026-04-30 07:46 | 34.19600 | 135.28442 | 8540 ft | 267 kts | 256° |
| 2026-04-30 07:47 | 34.19196 | 135.26283 | 8197 ft | 265 kts | 255° |
| 2026-04-30 07:47 | 34.18789 | 135.24103 | 7895 ft | 262 kts | 255° |
| 2026-04-30 07:47 | 34.18388 | 135.21968 | 7601 ft | 261 kts | 256° |
| 2026-04-30 07:47 | 34.17992 | 135.19858 | 7317 ft | 260 kts | 255° |
| 2026-04-30 07:48 | 34.17596 | 135.17722 | 7023 ft | 266 kts | 255° |
| 2026-04-30 07:48 | 34.17177 | 135.15486 | 6685 ft | 273 kts | 255° |
| 2026-04-30 07:48 | 34.17101 | 135.13226 | 6329 ft | 277 kts | 280° |
| 2026-04-30 07:48 | 34.17884 | 135.11110 | 5982 ft | 279 kts | 308° |
| 2026-04-30 07:49 | 34.19236 | 135.09494 | 5914 ft | 268 kts | 319° |
| 2026-04-30 07:49 | 34.20646 | 135.08083 | 5911 ft | 255 kts | 322° |
| 2026-04-30 07:49 | 34.21991 | 135.06772 | 5801 ft | 248 kts | 322° |
| 2026-04-30 07:49 | 34.23345 | 135.05455 | 5517 ft | 249 kts | 322° |
| 2026-04-30 07:50 | 34.24676 | 135.04147 | 5316 ft | 247 kts | 322° |
| 2026-04-30 07:50 | 34.26081 | 135.03005 | 5161 ft | 237 kts | 342° |
| 2026-04-30 07:50 | 34.27657 | 135.02658 | 4827 ft | 231 kts | 9° |
| 2026-04-30 07:50 | 34.29168 | 135.03154 | 4534 ft | 220 kts | 33° |
| 2026-04-30 07:51 | 34.30477 | 135.04071 | 4368 ft | 211 kts | 37° |
| 2026-04-30 07:51 | 34.31661 | 135.04979 | 4364 ft | 196 kts | 39° |
| 2026-04-30 07:51 | 34.32776 | 135.05878 | 4151 ft | 190 kts | 44° |
| 2026-04-30 07:51 | 34.33676 | 135.06981 | 3939 ft | 182 kts | 57° |
| 2026-04-30 07:52 | 34.34425 | 135.08165 | 3906 ft | 168 kts | 58° |
| 2026-04-30 07:52 | 34.35131 | 135.09215 | 3741 ft | 156 kts | 57° |
| 2026-04-30 07:52 | 34.35821 | 135.10236 | 3326 ft | 158 kts | 56° |
| 2026-04-30 07:52 | 34.36511 | 135.11238 | 2979 ft | 151 kts | 57° |
| 2026-04-30 07:53 | 34.37154 | 135.12190 | 2713 ft | 140 kts | 56° |
| 2026-04-30 07:53 | 34.37754 | 135.13083 | 2396 ft | 139 kts | 55° |
| 2026-04-30 07:53 | 34.38394 | 135.13954 | 1930 ft | 139 kts | 54° |
| 2026-04-30 07:53 | 34.39040 | 135.14763 | 1606 ft | 133 kts | 52° |
| 2026-04-30 07:54 | 34.39669 | 135.15573 | 1257 ft | 132 kts | 57° |
| 2026-04-30 07:54 | 34.40219 | 135.16440 | 955 ft | 129 kts | 60° |
| 2026-04-30 07:54 | 34.40736 | 135.17333 | 715 ft | 132 kts | 57° |
| 2026-04-30 07:54 | 34.41273 | 135.18211 | 518 ft | 132 kts | 57° |
| 2026-04-30 07:55 | 34.41848 | 135.19086 | 407 ft | 133 kts | 52° |
| 2026-04-30 07:55 | 34.42426 | 135.19960 | 223 ft | 133 kts | 55° |
| 2026-04-30 07:55 | 34.43010 | 135.20851 | 17 ft | 131 kts | 52° |
| 2026-04-30 07:55 | 34.43509 | 135.21590 | 15 ft | 94 kts | 51° |
| 2026-04-30 07:56 | 34.43778 | 135.21994 | 15 ft | 26 kts | 53° |
| 2026-04-30 07:56 | 34.43822 | 135.22134 | 15 ft | 13 kts | 73° |
| 2026-04-30 07:56 | 34.43837 | 135.22238 | 15 ft | 12 kts | 80° |
| 2026-04-30 07:56 | 34.43837 | 135.22339 | 15 ft | 12 kts | 109° |
| 2026-04-30 07:57 | 34.43783 | 135.22412 | 15 ft | 11 kts | 139° |
| 2026-04-30 07:57 | 34.43722 | 135.22478 | 15 ft | 11 kts | 139° |
| 2026-04-30 07:57 | 34.43656 | 135.22537 | 15 ft | 11 kts | 143° |
| 2026-04-30 07:57 | 34.43590 | 135.22600 | 15 ft | 11 kts | 140° |
| 2026-04-30 07:58 | 34.43527 | 135.22664 | 15 ft | 12 kts | 140° |
| 2026-04-30 07:58 | 34.43461 | 135.22728 | 15 ft | 12 kts | 141° |
| 2026-04-30 07:58 | 34.43396 | 135.22790 | 15 ft | 12 kts | 141° |
| 2026-04-30 07:58 | 34.43329 | 135.22856 | 15 ft | 12 kts | 140° |
| 2026-04-30 07:59 | 34.43263 | 135.22923 | 15 ft | 12 kts | 140° |